createdAt,value
2022-12-23T00:01:21.848Z,96.63
2022-12-23T00:03:49.729Z,96.72
2022-12-23T00:06:19.246Z,96.22
2022-12-23T00:08:47.423Z,96.54
2022-12-23T00:11:17.582Z,96.32
2022-12-23T00:14:03.407Z,96.51
2022-12-23T00:16:32.675Z,96.35
2022-12-23T00:19:00.519Z,96.80
2022-12-23T00:21:28.380Z,96.68
2022-12-23T00:23:56.168Z,96.13
2022-12-23T00:26:25.652Z,96.33
2022-12-23T00:28:53.897Z,96.23
2022-12-23T00:31:22.079Z,96.73
2022-12-23T00:33:54.278Z,96.64
2022-12-23T00:36:24.220Z,96.80
2022-12-23T00:39:10.229Z,96.85
2022-12-23T00:41:56.050Z,96.85
2022-12-23T00:44:24.217Z,96.76
2022-12-23T00:46:51.939Z,97.07
2022-12-23T00:49:39.294Z,96.97
2022-12-23T00:52:08.777Z,96.83
2022-12-23T00:54:36.873Z,96.36
2022-12-23T00:57:04.973Z,97.04
2022-12-23T00:59:32.719Z,97.43
2022-12-23T01:02:18.065Z,96.89
2022-12-23T01:05:04.614Z,97.04
2022-12-23T01:07:32.399Z,97.41
2022-12-23T01:10:00.146Z,97.10
2022-12-23T01:12:28.294Z,97.11
2022-12-23T01:14:56.081Z,97.23
2022-12-23T01:17:23.979Z,97.47
2022-12-23T01:19:53.166Z,97.36
2022-12-23T01:22:20.951Z,97.30
2022-12-23T01:24:48.752Z,97.49
2022-12-23T01:27:16.515Z,97.89
2022-12-23T01:29:44.219Z,97.03
2022-12-23T01:32:12.067Z,97.70
2022-12-23T01:34:39.874Z,98.06
2022-12-23T01:37:08.925Z,97.56
2022-12-23T01:39:36.721Z,97.15
2022-12-23T01:42:22.830Z,96.83
2022-12-23T01:44:55.051Z,96.45
2022-12-23T01:47:31.572Z,96.90
2022-12-23T01:50:06.761Z,97.27
2022-12-23T01:52:41.343Z,97.25
2022-12-23T01:55:10.293Z,97.60
2022-12-23T01:57:42.395Z,97.46
2022-12-23T02:00:28.746Z,97.99
2022-12-23T02:03:14.196Z,98.29
2022-12-23T02:05:43.861Z,98.09
2022-12-23T02:08:32.915Z,97.37
2022-12-23T02:11:19.915Z,97.65
2022-12-23T02:14:16.619Z,97.51
2022-12-23T02:16:54.537Z,98.18
2022-12-23T02:19:45.317Z,97.36
2022-12-23T02:22:37.828Z,97.81
2022-12-23T02:25:32.437Z,97.93
2022-12-23T02:28:18.772Z,97.70
2022-12-23T02:30:52.533Z,97.89
2022-12-23T02:33:31.637Z,97.70
2022-12-23T02:36:10.380Z,97.60
2022-12-23T02:38:49.111Z,97.60
2022-12-23T02:41:24.051Z,98.49
2022-12-23T02:43:58.813Z,97.31
2022-12-23T02:46:33.725Z,97.93
2022-12-23T02:49:08.319Z,97.49
2022-12-23T02:51:40.216Z,97.86
2022-12-23T02:54:12.422Z,97.66
2022-12-23T02:56:46.299Z,98.01
2022-12-23T02:59:18.701Z,97.30
2022-12-23T03:01:48.963Z,97.76
2022-12-23T03:04:16.831Z,98.10
2022-12-23T03:06:47.039Z,97.63
2022-12-23T03:09:21.873Z,97.05
2022-12-23T03:12:09.036Z,97.75
2022-12-23T03:14:59.171Z,97.53
2022-12-23T03:17:39.630Z,97.38
2022-12-23T03:20:14.749Z,97.95
2022-12-23T03:22:51.161Z,97.75
2022-12-23T03:25:24.344Z,97.58
2022-12-23T03:27:58.263Z,98.21
2022-12-23T03:30:26.531Z,97.63
2022-12-23T03:32:59.380Z,97.47
2022-12-23T03:35:33.543Z,97.59
2022-12-23T03:38:03.508Z,98.26
2022-12-23T03:40:36.806Z,98.22
2022-12-23T03:43:08.272Z,97.52
2022-12-23T03:45:42.264Z,97.58
2022-12-23T03:48:18.748Z,98.25
2022-12-23T03:50:48.982Z,97.98
2022-12-23T03:53:23.405Z,98.27
2022-12-23T03:55:57.232Z,98.10
2022-12-23T03:58:35.092Z,97.76
2022-12-23T04:01:11.830Z,97.21
2022-12-23T04:03:50.842Z,97.84
2022-12-23T04:06:21.937Z,97.58
2022-12-23T04:08:51.071Z,98.37
2022-12-23T04:11:19.323Z,98.45
2022-12-23T04:13:49.043Z,98.02
2022-12-23T04:16:17.509Z,97.70
2022-12-23T04:18:47.839Z,97.56
2022-12-23T04:21:15.622Z,97.93
2022-12-23T04:23:43.490Z,97.39
2022-12-23T04:26:11.281Z,97.35
2022-12-23T04:28:38.976Z,97.54
2022-12-23T04:31:06.809Z,96.87
2022-12-23T04:33:34.632Z,97.00
2022-12-23T04:36:03.847Z,97.63
2022-12-23T04:38:31.674Z,97.21
2022-12-23T04:40:59.459Z,97.40
2022-12-23T04:43:27.265Z,97.63
2022-12-23T04:45:55.060Z,97.44
2022-12-23T04:48:22.952Z,97.35
2022-12-23T04:50:50.725Z,97.87
2022-12-23T04:53:19.842Z,97.12
2022-12-23T04:55:51.310Z,97.14
2022-12-23T04:58:22.060Z,96.42
2022-12-23T05:00:50.123Z,96.96
2022-12-23T05:03:18.328Z,96.35
2022-12-23T05:05:46.370Z,96.72
2022-12-23T05:08:14.126Z,96.46
2022-12-23T05:10:43.286Z,97.37
2022-12-23T05:13:11.184Z,97.25
2022-12-23T05:15:38.930Z,96.89
2022-12-23T05:18:06.820Z,97.10
2022-12-23T05:20:34.938Z,97.58
2022-12-23T05:23:02.667Z,96.78
2022-12-23T05:25:30.736Z,96.90
2022-12-23T05:27:59.900Z,97.52
2022-12-23T05:30:27.768Z,96.44
2022-12-23T05:32:56.179Z,96.69
2022-12-23T05:35:25.094Z,96.19
2022-12-23T05:37:53.135Z,95.87
2022-12-23T05:40:24.660Z,95.52
2022-12-23T05:42:53.024Z,96.02
2022-12-23T05:45:22.416Z,95.24
2022-12-23T05:47:50.261Z,94.62
2022-12-23T05:50:18.142Z,95.84
2022-12-23T05:52:45.941Z,96.31
2022-12-23T05:55:13.688Z,96.18
2022-12-23T05:57:41.529Z,95.96
2022-12-23T06:00:11.163Z,95.74
2022-12-23T06:02:40.475Z,95.37
2022-12-23T06:05:09.240Z,95.31
2022-12-23T06:07:37.290Z,95.85
2022-12-23T06:10:06.002Z,94.82
2022-12-23T06:12:33.850Z,95.22
2022-12-23T06:15:01.711Z,95.78
2022-12-23T06:17:29.511Z,95.92
2022-12-23T06:19:58.657Z,96.08
2022-12-23T06:22:26.555Z,96.59
2022-12-23T06:24:54.294Z,95.59
2022-12-23T06:27:22.036Z,96.13
2022-12-23T06:29:49.859Z,96.00
2022-12-23T06:32:17.648Z,96.17
2022-12-23T06:34:50.175Z,95.62
2022-12-23T06:37:19.285Z,95.95
2022-12-23T06:39:47.028Z,95.91
2022-12-23T06:42:14.820Z,96.16
2022-12-23T06:44:42.746Z,95.88
2022-12-23T06:47:10.573Z,95.92
2022-12-23T06:49:38.383Z,96.12
2022-12-23T06:52:06.358Z,95.99
2022-12-23T06:54:35.439Z,95.96
2022-12-23T06:57:03.172Z,95.93
2022-12-23T06:59:31.506Z,95.76
2022-12-23T07:01:59.421Z,95.54
2022-12-23T07:04:27.372Z,95.51
2022-12-23T07:06:55.248Z,95.19
2022-12-23T07:09:23.052Z,95.02
2022-12-23T07:11:52.180Z,94.99
2022-12-23T07:14:19.950Z,95.00
2022-12-23T07:16:48.182Z,94.34
2022-12-23T07:19:16.093Z,94.25
2022-12-23T07:21:43.869Z,94.00
2022-12-23T07:24:11.963Z,93.52
2022-12-23T07:26:39.792Z,94.24
2022-12-23T07:29:08.960Z,93.79
2022-12-23T07:31:40.780Z,94.03
2022-12-23T07:34:10.757Z,94.09
2022-12-23T07:36:38.577Z,94.45
2022-12-23T07:39:06.499Z,94.26
2022-12-23T07:41:34.305Z,93.90
2022-12-23T07:44:02.122Z,94.46
2022-12-23T07:46:31.329Z,94.32
2022-12-23T07:48:59.242Z,94.57
2022-12-23T07:51:27.002Z,95.09
2022-12-23T07:53:54.819Z,95.10
2022-12-23T07:56:22.647Z,95.08
2022-12-23T07:58:50.859Z,94.88
2022-12-23T08:01:19.675Z,94.86
2022-12-23T08:03:48.975Z,94.31
2022-12-23T08:06:17.419Z,95.00
2022-12-23T08:08:47.172Z,95.05
2022-12-23T08:11:16.638Z,94.78
2022-12-23T08:13:46.265Z,94.52
2022-12-23T08:16:14.127Z,93.90
2022-12-23T08:18:43.144Z,93.64
2022-12-23T08:21:15.669Z,94.65
2022-12-23T08:23:43.935Z,93.86
2022-12-23T08:26:14.386Z,93.75
2022-12-23T08:28:43.525Z,93.40
2022-12-23T08:31:14.014Z,93.59
2022-12-23T08:33:44.147Z,94.11
2022-12-23T08:36:19.206Z,94.20
2022-12-23T08:38:50.820Z,93.64
2022-12-23T08:41:21.375Z,94.22
2022-12-23T08:43:49.317Z,93.40
2022-12-23T08:46:17.255Z,93.25
2022-12-23T08:48:49.483Z,92.92
2022-12-23T08:51:21.648Z,93.54
2022-12-23T08:53:54.813Z,94.37
2022-12-23T08:56:26.272Z,93.95
2022-12-23T08:58:55.615Z,93.25
2022-12-23T09:01:25.821Z,92.90
2022-12-23T09:03:54.454Z,92.04
2022-12-23T09:06:29.680Z,92.53
2022-12-23T09:08:58.317Z,92.19
2022-12-23T09:11:27.876Z,91.82
2022-12-23T09:13:56.551Z,92.15
2022-12-23T09:16:24.675Z,92.20
2022-12-23T09:18:52.509Z,92.85
2022-12-23T09:21:21.984Z,92.84
2022-12-23T09:23:51.343Z,92.61
2022-12-23T09:26:21.454Z,93.70
2022-12-23T09:28:49.325Z,93.66
2022-12-23T09:31:17.809Z,93.03
2022-12-23T09:33:47.970Z,92.61
2022-12-23T09:36:16.067Z,92.94
2022-12-23T09:38:44.280Z,92.94
2022-12-23T09:41:24.133Z,92.52
2022-12-23T09:43:59.930Z,92.58
2022-12-23T09:46:30.836Z,92.29
2022-12-23T09:49:03.305Z,92.19
2022-12-23T09:51:32.301Z,91.41
2022-12-23T09:54:04.586Z,91.85
2022-12-23T09:56:41.231Z,92.24
2022-12-23T09:59:24.838Z,92.01
2022-12-23T10:01:59.172Z,90.65
2022-12-23T10:04:42.859Z,91.64
2022-12-23T10:07:32.302Z,91.57
2022-12-23T10:10:07.286Z,90.67
2022-12-23T10:12:41.754Z,92.27
2022-12-23T10:15:22.361Z,92.32
2022-12-23T10:17:54.141Z,92.13
2022-12-23T10:20:32.451Z,92.27
2022-12-23T10:23:00.975Z,91.70
2022-12-23T10:25:34.472Z,91.54
2022-12-23T10:28:04.959Z,91.21
2022-12-23T10:33:37.549Z,91.59
2022-12-23T10:36:14.567Z,92.12
2022-12-23T10:38:52.798Z,91.88
2022-12-23T10:41:29.859Z,90.99
2022-12-23T10:44:27.195Z,91.41
2022-12-23T10:47:06.589Z,91.08
2022-12-23T10:49:43.318Z,91.09
2022-12-23T10:52:16.427Z,91.79
2022-12-23T10:54:46.436Z,90.28
2022-12-23T10:57:16.190Z,90.74
2022-12-23T10:59:45.572Z,91.36
2022-12-23T11:02:33.101Z,91.95
2022-12-23T11:05:01.032Z,92.98
2022-12-23T11:07:46.486Z,92.80
2022-12-23T11:10:18.763Z,93.19
2022-12-23T11:12:49.397Z,93.67
2022-12-23T11:15:31.633Z,93.86
2022-12-23T11:18:08.063Z,93.85
2022-12-23T11:20:37.534Z,93.83
2022-12-23T11:23:07.386Z,94.02
2022-12-23T11:25:38.157Z,95.00
2022-12-23T11:28:16.207Z,94.31
2022-12-23T11:30:56.553Z,94.89
2022-12-23T11:33:27.569Z,94.53
2022-12-23T11:36:04.520Z,95.20
2022-12-23T11:38:33.095Z,94.46
2022-12-23T11:41:01.801Z,94.26
2022-12-23T11:43:30.256Z,94.57
2022-12-23T11:46:26.369Z,95.71
2022-12-23T11:49:06.933Z,95.53
2022-12-23T11:51:34.919Z,96.21
2022-12-23T11:54:03.938Z,96.05
2022-12-23T11:56:38.589Z,95.77
2022-12-23T11:59:09.894Z,95.74
2022-12-23T12:01:40.231Z,95.25
2022-12-23T12:04:15.725Z,95.51
2022-12-23T12:06:48.443Z,94.88
2022-12-23T12:09:21.932Z,95.56
2022-12-23T12:11:52.319Z,94.64
2022-12-23T12:14:26.210Z,95.06
2022-12-23T12:17:01.672Z,95.49
2022-12-23T12:19:34.462Z,95.35
2022-12-23T12:22:07.087Z,94.56
2022-12-23T12:24:39.963Z,94.83
2022-12-23T12:27:11.291Z,94.82
2022-12-23T12:29:44.692Z,94.42
2022-12-23T12:32:21.800Z,95.17
2022-12-23T12:34:55.736Z,95.72
2022-12-23T12:37:33.857Z,95.48
2022-12-23T12:40:04.067Z,96.14
2022-12-23T12:42:39.159Z,95.84
2022-12-23T12:45:18.300Z,95.15
2022-12-23T12:48:05.977Z,95.55
2022-12-23T12:50:45.586Z,95.76
2022-12-23T12:53:19.840Z,95.66
2022-12-23T12:55:51.846Z,95.22
2022-12-23T12:58:22.859Z,95.14
2022-12-23T13:01:03.644Z,94.47
2022-12-23T13:04:05.649Z,95.40
2022-12-23T13:06:40.778Z,95.60
2022-12-23T13:09:21.262Z,95.30
2022-12-23T13:11:56.205Z,95.22
2022-12-23T13:14:35.239Z,95.25
2022-12-23T13:17:09.561Z,95.69
2022-12-23T13:19:47.545Z,95.56
2022-12-23T13:22:18.520Z,95.11
2022-12-23T13:25:00.215Z,95.07
2022-12-23T13:27:32.741Z,94.79
2022-12-23T13:30:13.135Z,94.63
2022-12-23T13:33:05.067Z,94.68
2022-12-23T13:35:49.876Z,94.79
2022-12-23T13:38:31.539Z,94.94
2022-12-23T13:41:05.795Z,95.15
2022-12-23T13:43:42.714Z,95.53
2022-12-23T13:46:19.603Z,96.01
2022-12-23T13:48:58.572Z,95.54
2022-12-23T13:51:34.140Z,95.53
2022-12-23T13:54:12.285Z,95.55
2022-12-23T13:56:44.004Z,94.86
2022-12-23T13:59:15.533Z,95.47
2022-12-23T14:01:48.523Z,95.45
2022-12-23T14:04:59.324Z,95.40
2022-12-23T14:07:31.668Z,95.45
2022-12-23T14:10:10.204Z,95.87
2022-12-23T14:12:40.763Z,95.96
2022-12-23T14:15:36.605Z,96.42
2022-12-23T14:18:18.986Z,96.42
2022-12-23T14:20:52.173Z,96.01
2022-12-23T14:23:34.299Z,95.71
2022-12-23T14:26:20.159Z,96.48
2022-12-23T14:29:03.043Z,96.75
2022-12-23T14:31:36.421Z,96.68
2022-12-23T14:34:07.265Z,96.81
2022-12-23T14:36:35.321Z,96.55
2022-12-23T14:39:31.962Z,96.51
2022-12-23T14:42:06.007Z,95.83
2022-12-23T14:44:50.364Z,96.60
2022-12-23T14:47:34.444Z,96.43
2022-12-23T14:50:38.355Z,96.71
2022-12-23T14:53:21.827Z,96.61
2022-12-23T14:55:53.608Z,96.79
2022-12-23T14:58:51.297Z,96.78
2022-12-23T15:01:22.612Z,96.83
2022-12-23T15:03:59.227Z,96.54
2022-12-23T15:06:36.506Z,96.37
2022-12-23T15:09:07.565Z,97.00
2022-12-23T15:11:37.571Z,96.32
2022-12-23T15:14:10.294Z,96.63
2022-12-23T15:16:40.376Z,97.58
2022-12-23T15:19:22.530Z,97.82
2022-12-23T15:21:59.608Z,97.93
2022-12-23T15:24:33.251Z,98.52
2022-12-23T15:27:25.411Z,97.83
2022-12-23T15:29:53.136Z,98.42
2022-12-23T15:32:24.280Z,98.40
2022-12-23T15:34:53.732Z,98.01
2022-12-23T15:37:28.865Z,98.27
2022-12-23T15:40:04.821Z,97.90
2022-12-23T15:42:39.239Z,97.61
2022-12-23T15:45:36.218Z,97.42
2022-12-23T15:48:06.570Z,97.56
2022-12-23T15:50:41.853Z,97.84
2022-12-23T15:53:11.741Z,97.43
2022-12-23T15:55:41.402Z,96.78
2022-12-23T15:58:19.679Z,97.54
2022-12-23T16:00:56.331Z,96.82
2022-12-23T16:03:29.513Z,97.53
2022-12-23T16:06:11.238Z,97.69
2022-12-23T16:08:39.872Z,97.99
2022-12-23T16:11:14.925Z,97.83
2022-12-23T16:13:58.524Z,97.41
2022-12-23T16:16:38.360Z,98.23
2022-12-23T16:19:06.535Z,98.14
2022-12-23T16:21:37.573Z,97.84
2022-12-23T16:24:09.794Z,97.47
2022-12-23T16:26:41.454Z,98.05
2022-12-23T16:29:12.471Z,98.21
2022-12-23T16:31:45.728Z,98.35
2022-12-23T16:34:19.103Z,99.12
2022-12-23T16:36:46.976Z,98.68
2022-12-23T16:39:21.465Z,99.51
2022-12-23T16:41:49.768Z,99.44
2022-12-23T16:44:18.962Z,99.41
2022-12-23T16:46:50.594Z,98.75
2022-12-23T16:49:20.976Z,98.67
2022-12-23T16:51:49.753Z,98.55
2022-12-23T16:54:21.454Z,98.82
2022-12-23T16:56:50.092Z,97.95
2022-12-23T16:59:19.835Z,97.55
2022-12-23T17:01:49.543Z,97.49
2022-12-23T17:04:17.543Z,96.68
2022-12-23T17:06:46.553Z,96.92
2022-12-23T17:09:14.611Z,97.67
2022-12-23T17:11:44.649Z,97.65
2022-12-23T17:14:17.273Z,97.47
2022-12-23T17:16:47.954Z,96.96
2022-12-23T17:19:20.515Z,97.10
2022-12-23T17:21:56.529Z,98.29
2022-12-23T17:24:26.060Z,98.40
2022-12-23T17:26:56.677Z,98.43
2022-12-23T17:29:24.865Z,99.09
2022-12-23T17:31:54.305Z,98.25
2022-12-23T17:34:24.509Z,97.96
2022-12-23T17:36:53.198Z,99.46
2022-12-23T17:39:22.146Z,98.68
2022-12-23T17:41:49.993Z,98.63
2022-12-23T17:44:18.772Z,98.51
2022-12-23T17:46:47.562Z,98.18
2022-12-23T17:49:16.843Z,98.29
2022-12-23T17:51:45.048Z,98.09
2022-12-23T17:54:22.964Z,97.58
2022-12-23T17:56:51.374Z,97.64
2022-12-23T17:59:19.493Z,97.46
2022-12-23T18:01:47.441Z,96.81
2022-12-23T18:04:19.459Z,96.41
2022-12-23T18:06:47.426Z,95.98
2022-12-23T18:09:15.401Z,95.70
2022-12-23T18:11:46.617Z,95.24
2022-12-23T18:14:18.732Z,94.42
2022-12-23T18:16:47.107Z,93.98
2022-12-23T18:19:21.300Z,94.11
2022-12-23T18:21:49.824Z,94.34
2022-12-23T18:24:18.733Z,94.45
2022-12-23T18:26:47.562Z,93.74
2022-12-23T18:29:18.650Z,93.67
2022-12-23T18:31:51.915Z,93.41
2022-12-23T18:34:22.085Z,93.51
2022-12-23T18:36:51.928Z,93.14
2022-12-23T18:39:20.145Z,93.01
2022-12-23T18:41:48.181Z,92.72
2022-12-23T18:44:20.037Z,92.93
2022-12-23T18:46:48.221Z,91.94
2022-12-23T18:49:16.245Z,91.66
2022-12-23T18:51:45.712Z,90.80
2022-12-23T18:54:15.334Z,90.54
2022-12-23T18:56:43.175Z,90.82
2022-12-23T18:59:17.010Z,89.97
2022-12-23T19:01:45.057Z,88.92
2022-12-23T19:04:13.327Z,89.59
2022-12-23T19:06:41.947Z,89.19
2022-12-23T19:09:15.348Z,89.31
2022-12-23T19:11:43.396Z,89.17
2022-12-23T19:14:13.094Z,90.15
2022-12-23T19:16:47.579Z,89.94
2022-12-23T19:19:19.040Z,89.13
2022-12-23T19:21:47.215Z,88.95
2022-12-23T19:24:16.819Z,88.88
2022-12-23T19:26:44.754Z,89.05
2022-12-23T19:29:12.762Z,87.94
2022-12-23T19:31:41.309Z,87.34
2022-12-23T19:34:14.543Z,86.57
2022-12-23T19:36:43.549Z,86.24
2022-12-23T19:39:16.096Z,84.18
2022-12-23T19:41:45.841Z,82.98
2022-12-23T19:44:13.888Z,82.11
2022-12-23T19:46:42.239Z,81.23
2022-12-23T19:49:15.712Z,82.80
2022-12-23T19:51:47.208Z,81.22
2022-12-23T19:54:15.134Z,80.76
2022-12-23T19:56:43.083Z,82.08
2022-12-23T19:59:12.456Z,81.32
2022-12-23T20:01:40.256Z,81.84
2022-12-23T20:04:08.136Z,80.89
2022-12-23T20:06:38.309Z,81.88
2022-12-23T20:09:07.796Z,83.60
2022-12-23T20:11:37.885Z,83.75
2022-12-23T20:14:06.650Z,84.59
2022-12-23T20:16:37.100Z,85.92
2022-12-23T20:19:05.657Z,85.53
2022-12-23T20:21:34.128Z,85.99
2022-12-23T20:24:02.756Z,86.73
2022-12-23T20:26:31.278Z,85.13
2022-12-23T20:28:59.487Z,85.59
2022-12-23T20:31:29.266Z,85.26
2022-12-23T20:33:59.990Z,86.02
2022-12-23T20:36:30.711Z,85.59
2022-12-23T20:38:59.306Z,84.14
2022-12-23T20:41:30.259Z,84.85
2022-12-23T20:46:46.696Z,84.87
2022-12-23T20:49:15.968Z,85.25
2022-12-23T20:51:43.750Z,84.10
2022-12-23T20:54:11.558Z,84.36
2022-12-23T20:56:39.537Z,83.47
2022-12-23T20:59:07.748Z,81.80
2022-12-23T21:01:37.936Z,81.62
2022-12-23T21:04:08.190Z,81.42
2022-12-23T21:06:38.033Z,79.70
2022-12-23T21:09:07.742Z,80.29
2022-12-23T21:11:38.739Z,78.17
2022-12-23T21:14:07.729Z,77.29
2022-12-23T21:16:37.652Z,77.37
2022-12-23T21:19:06.317Z,77.00
2022-12-23T21:21:34.340Z,76.12
2022-12-23T21:24:05.169Z,76.69
2022-12-23T21:26:34.948Z,76.24
2022-12-23T21:29:05.505Z,77.61
2022-12-23T21:31:35.710Z,78.02
2022-12-23T21:34:04.395Z,76.59
2022-12-23T21:36:33.770Z,75.39
2022-12-23T21:39:03.475Z,72.93
2022-12-23T21:41:34.972Z,73.22
2022-12-23T21:44:03.635Z,72.30
2022-12-23T21:46:31.554Z,73.31
2022-12-23T21:49:00.099Z,74.34
2022-12-23T21:51:36.897Z,74.83
2022-12-23T21:54:09.433Z,73.49
2022-12-23T21:56:37.432Z,73.02
2022-12-23T21:59:07.594Z,73.37
2022-12-23T22:01:35.668Z,73.21
2022-12-23T22:04:04.347Z,73.27
2022-12-23T22:06:34.194Z,74.81
2022-12-23T22:09:02.057Z,74.75
2022-12-23T22:11:33.442Z,74.79
2022-12-23T22:14:02.577Z,74.51
2022-12-23T22:16:31.645Z,76.14
2022-12-23T22:19:01.437Z,76.20
2022-12-23T22:21:31.168Z,75.74
2022-12-23T22:23:59.238Z,75.92
2022-12-23T22:26:28.878Z,76.88
2022-12-23T22:29:00.782Z,77.57
2022-12-23T22:31:32.867Z,76.89
2022-12-23T22:34:00.836Z,78.76
2022-12-23T22:36:28.756Z,78.65
2022-12-23T22:39:01.736Z,78.40
2022-12-23T22:41:31.119Z,79.35
2022-12-23T22:44:01.176Z,78.17
2022-12-23T22:46:29.449Z,79.06
2022-12-23T22:48:58.872Z,79.20
2022-12-23T22:51:29.347Z,79.43
2022-12-23T22:53:57.784Z,79.10
2022-12-23T22:56:26.860Z,80.09
2022-12-23T22:58:54.960Z,80.94
2022-12-23T23:01:26.010Z,80.02
2022-12-23T23:03:57.314Z,79.34
2022-12-23T23:06:26.810Z,79.67
2022-12-23T23:08:54.913Z,78.18
2022-12-23T23:11:23.369Z,79.20
2022-12-23T23:13:51.571Z,77.06
2022-12-23T23:16:19.640Z,77.20
2022-12-23T23:18:48.882Z,75.69
2022-12-23T23:21:16.971Z,75.40
2022-12-23T23:23:44.961Z,75.13
2022-12-23T23:26:14.024Z,75.43
2022-12-23T23:28:42.295Z,75.39
2022-12-23T23:31:40.689Z,77.70
2022-12-23T23:34:00.006Z,76.13
2022-12-23T23:36:27.863Z,78.43
2022-12-23T23:38:55.744Z,76.97
2022-12-23T23:41:24.367Z,78.03
2022-12-23T23:43:52.771Z,78.25
2022-12-23T23:46:20.975Z,76.30
2022-12-23T23:48:48.797Z,77.68
2022-12-23T23:51:17.903Z,77.55
2022-12-23T23:53:45.772Z,78.40
2022-12-23T23:56:13.587Z,78.87
2022-12-23T23:58:41.398Z,79.67
